Flight Track Log - Related Links

Times and Time Zones

All times are in EDT time to prevent confusion due to time zone crossing. See the N700FL flight status page for this flight to view local times or setup timezone preferences in your user account.

Time Position Orientation Groundspeed Altitude Reporting Facility
EDT Latitude Longitude Course Direction KTS MPH feet Rate Location/Type
Thu 12:27:15 PM 38.2188 -84.4737 239° Southwest  Level FlightAware Approximate
Thu 12:27:59 PM 38.1933 -84.5269 243° Southwest 199 229 5,500  Level Indianapolis Center
Thu 12:28:59 PM 38.1614 -84.6056 243° Southwest 234 269 7,800 2,850 Climbing Indianapolis Center
Thu 12:29:59 PM 38.1292 -84.6844 244° Southwest 259 298 11,200 2,350 Climbing Indianapolis Center
Thu 12:30:59 PM 38.0928 -84.7789 243° Southwest 281 323 12,500 1,700 Climbing Indianapolis Center
Thu 12:31:59 PM 38.0522 -84.8783 243° Southwest 306 352 14,600 1,700 Climbing Indianapolis Center
Thu 12:32:59 PM 38.0072 -84.9883 244° Southwest 334 384 15,900 1,550 Climbing Indianapolis Center
Thu 12:33:59 PM 37.9639 -85.1008 241° Southwest 357 411 17,700 1,750 Climbing Indianapolis Center
Thu 12:34:59 PM 37.9144 -85.2156 243° Southwest 365 420 19,400 1,600 Climbing Indianapolis Center
Thu 12:35:59 PM 37.8689 -85.3303 243° Southwest 365 420 20,900 1,450 Climbing Indianapolis Center
Thu 12:36:59 PM 37.8211 -85.4475 243° Southwest 365 420 22,300 1,350 Climbing Indianapolis Center
Thu 12:37:59 PM 37.7733 -85.5669 243° Southwest 380 437 23,600 1,100 Climbing Indianapolis Center
Thu 12:38:59 PM 37.7233 -85.6892 242° Southwest 385 443 24,500 989 Climbing Indianapolis Center
Thu 12:40:55 PM 37.6178 -85.9406 243° Southwest 424 488 26,500 1,023 Climbing Memphis Center
Thu 12:41:55 PM 37.5603 -86.0825 242° Southwest 424 488 27,500 1,000 Climbing Memphis Center
Thu 12:42:55 PM 37.5042 -86.2136 242° Southwest 424 488 28,500 1,000 Climbing Memphis Center
Thu 12:43:55 PM 37.4503 -86.3417 243° Southwest 424 488 29,500 1,000 Climbing Memphis Center
Thu 12:44:55 PM 37.3961 -86.4750 242° Southwest 429 494 30,500 1,050 Climbing Memphis Center
Thu 12:45:55 PM 37.3397 -86.6056 242° Southwest 429 494 31,600 1,050 Climbing Memphis Center
Thu 12:46:55 PM 37.2853 -86.7361 242° Southwest 429 494 32,600 1,000 Climbing Memphis Center
Thu 12:47:55 PM 37.2306 -86.8661 242° Southwest 424 488 33,600 700 Climbing Memphis Center
Thu 12:48:55 PM 37.1739 -87.0014 241° Southwest 429 494 34,000 200 Climbing Memphis Center
Thu 12:49:55 PM 37.1150 -87.1364 242° Southwest 436 502 34,000  Level Memphis Center
Thu 12:50:55 PM 37.0561 -87.2742 242° Southwest 442 509 34,000  Level Memphis Center
Thu 12:51:55 PM 36.9989 -87.4086 240° Southwest 447 514 34,000  Level Memphis Center
Thu 12:52:55 PM 36.9375 -87.5433 243° Southwest 447 514 34,000  Level Memphis Center
Thu 12:53:55 PM 36.8800 -87.6828 241° Southwest 447 514 34,000  Level Memphis Center
Thu 12:54:55 PM 36.8264 -87.8039 242° Southwest 447 514 34,000  Level Memphis Center
Thu 12:55:55 PM 36.7667 -87.9431 240° Southwest 452 520 34,000  Level Memphis Center
Thu 12:56:55 PM 36.7044 -88.0769 242° Southwest 457 526 34,000  Level Memphis Center
Thu 12:57:55 PM 36.6406 -88.2261 242° Southwest 457 526 34,000  Level Memphis Center
Thu 12:58:55 PM 36.5803 -88.3647 239° Southwest 457 526 34,000  Level Memphis Center
Thu 12:59:55 PM 36.5158 -88.5006 241° Southwest 457 526 34,000  Level Memphis Center
Thu 01:00:55 PM 36.4550 -88.6361 240° Southwest 457 526 34,000  Level Memphis Center
Thu 01:01:55 PM 36.3922 -88.7714 241° Southwest 457 526 34,000  Level Memphis Center
Thu 01:02:55 PM 36.3294 -88.9092 240° Southwest 457 526 34,000  Level Memphis Center
Thu 01:03:55 PM 36.2725 -89.0311 239° Southwest 457 526 34,000  Level Memphis Center
Thu 01:04:55 PM 36.2069 -89.1686 241° Southwest 463 533 34,000  Level Memphis Center
Thu 01:05:55 PM 36.1436 -89.3083 241° Southwest 468 539 34,000  Level Memphis Center
Thu 01:06:55 PM 36.0822 -89.4453 241° Southwest 468 539 34,000  Level Memphis Center
Thu 01:07:55 PM 36.0206 -89.5819 240° Southwest 468 539 34,000  Level Memphis Center
Thu 01:08:55 PM 35.9567 -89.7211 241° Southwest 468 539 34,000 -150 Level Memphis Center
Thu 01:09:55 PM 35.8947 -89.8572 239° Southwest 468 539 33,700 -750 Descending Memphis Center
Thu 01:10:55 PM 35.8286 -89.9933 240° Southwest 468 539 32,500 -1,350 Descending Memphis Center
Thu 01:11:55 PM 35.7642 -90.1294 240° Southwest 463 533 31,000 -1,450 Descending Memphis Center
Thu 01:12:55 PM 35.6997 -90.2675 242° Southwest 468 539 29,600 -1,400 Descending Memphis Center
Thu 01:13:55 PM 35.6394 -90.4081 239° Southwest 468 539 28,200 -1,700 Descending Memphis Center
Thu 01:14:55 PM 35.5725 -90.5458 240° Southwest 468 539 26,200 -2,000 Descending Memphis Center
Thu 01:15:55 PM 35.5056 -90.6886 240° Southwest 475 547 24,200 -1,100 Descending Memphis Center
Thu 01:16:55 PM 35.4403 -90.8258 239° Southwest 475 547 24,000 -100 Descending Memphis Center
Thu 01:17:55 PM 35.3772 -90.9531 240° Southwest 456 525 24,000 -600 Level Memphis Center
Thu 01:18:55 PM 35.3203 -91.0747 238° Southwest 456 525 22,800 -1,900 Descending Memphis Center
Thu 01:19:55 PM 35.2444 -91.2214 239° Southwest 461 531 20,200 -2,850 Descending Memphis Center
Thu 01:20:55 PM 35.1767 -91.3581 240° Southwest 468 539 17,100 -3,056 Descending Memphis Center
Thu 01:21:43 PM 35.1214 -91.4742 239° Southwest 437 503 14,700 -2,752 Descending Memphis Center
Thu 01:22:44 PM 35.0575 -91.6053 238° Southwest 425 489 12,100 -1,918 Descending Memphis Center
Thu 01:23:45 PM 35.0000 -91.7183 239° Southwest 422 486 10,800 -916 Descending Memphis Center
Thu 01:24:55 PM 34.9358 -91.8492 240° Southwest 428 493 10,100 -639 Descending Memphis Center
Thu 01:25:47 PM 34.8953 -91.9344 238° Southwest 303 349 9,500 -3,054 Descending Memphis Center
Thu 01:26:47 PM 34.8544 -92.0147 242° Southwest 266 306 4,400 -3,496 Descending Memphis Center
Thu 01:27:42 PM 34.8267 -92.0775 237° Southwest 239 275 2,800 -983 Descending Memphis Center
Thu 01:28:43 PM 34.7922 -92.1425 231° Southwest 213 245 2,500 -626 Descending Memphis Center
Thu 01:29:37 PM 34.7689 -92.1772 230° Southwest 151 174 1,600 -992 Descending Memphis Center
Thu 01:30:44 PM 34.7433 -92.2147 230° Southwest 131 151 500 -985 Descending Memphis Center

Login

Don't have an account? Register now (free) for customized features, flight alerts, and more!